Portada
METAR-TAF:

METAR-TAF

Aeroports :

East Jakarta, Indonèsia

latitud: 06-15-59S, longitud: 106-53-28E, altitud: 25 m

Observació

L'informe es va fer fa 6 hores i 14 minuts, a les 12:00 UTC
Vent 5 kt del Nord
Temperatura 29°C
Humitat 62%
Pressió 1010 hPa
Visibilitat: 6000 m
Escasses núvols a una alçada de 2000 ft

METAR: WIHH 211200Z 35005KT 6000 FEW020 29/21 Q1010 NOSIG

Hora: 01:14 (18:14 UTC)

Pronòstic

L'informe es va fer fa 1 hora i 14 minuts, a les 17:00 UTC
Pronòstic vàlid del 21 a les 18 UTC al 22 a les 18 UTC
Vent 4 kt del Sud-Oest
Visibilitat: 5000 m
Escasses núvols a una alçada de 2000 ft
calitja
Evolucionant progressivament
l' 22 a les 03 UTC al 22 a les 05 UTC
Vent 10 kt del Est/Sud-Est

TAF: WIHH 211700Z 2118/2218 23004KT 5000 HZ FEW020 BECMG 2203/2205 12010KT

Observacions i pronòstics meteorològics de més de 4000 aeroports (METAR i TAF).

Les estacions disponibles són els punts grocs i vermells al mapa.

Posi el ratolí al punt desitjat per veure el nom de l'estació.

Feu clic per veure les observacions i els pronòstics meteorològics.

Per canviar el mapa: feu clic els botons verds amb una creu de color negre per apropar; al botó verd amb un guió per allunyar la imatge; o en les fletxes verdes per a mapes adjacents.


METAR-TAF: